createdAt,value
2017-11-10T00:02:40.911Z,76.37
2017-11-10T00:08:21.731Z,77.04
2017-11-10T00:16:40.478Z,78.22
2017-11-10T00:19:13.003Z,78.56
2017-11-10T00:21:44.774Z,79.15
2017-11-10T00:24:16.350Z,79.38
2017-11-10T00:26:47.780Z,79.44
2017-11-10T00:29:21.162Z,79.49
2017-11-10T00:31:53.309Z,79.79
2017-11-10T00:34:27.052Z,79.89
2017-11-10T00:37:00.491Z,79.84
2017-11-10T00:39:33.109Z,79.99
2017-11-10T00:42:12.405Z,80.43
2017-11-10T00:44:44.186Z,80.63
2017-11-10T00:47:16.731Z,80.62
2017-11-10T00:49:48.959Z,80.53
2017-11-10T00:52:23.265Z,80.49
2017-11-10T00:54:57.393Z,80.53
2017-11-10T00:57:30.919Z,80.61
2017-11-10T01:00:05.338Z,81.02
2017-11-10T01:02:41.973Z,81.04
2017-11-10T01:05:26.369Z,81.25
2017-11-10T01:08:21.345Z,81.59
2017-11-10T01:10:52.789Z,81.78
2017-11-10T01:13:27.675Z,81.53
2017-11-10T01:15:59.152Z,81.59
2017-11-10T01:18:30.903Z,81.71
2017-11-10T01:21:04.159Z,81.74
2017-11-10T01:23:36.184Z,81.61
2017-11-10T01:26:08.517Z,81.27
2017-11-10T01:28:39.940Z,81.02
2017-11-10T01:31:11.943Z,80.31
2017-11-10T01:33:44.042Z,79.97
2017-11-10T01:36:19.720Z,79.94
2017-11-10T01:38:51.493Z,80.19
2017-11-10T01:41:25.292Z,80.21
2017-11-10T01:43:56.746Z,80.14
2017-11-10T01:46:28.516Z,79.93
2017-11-10T01:48:59.925Z,79.49
2017-11-10T01:51:31.628Z,79.32
2017-11-10T01:54:04.483Z,78.95
2017-11-10T01:56:39.659Z,78.69
2017-11-10T01:59:11.456Z,78.16
2017-11-10T02:01:44.672Z,77.88
2017-11-10T02:04:17.529Z,77.73
2017-11-10T02:06:49.418Z,77.95
2017-11-10T02:09:22.164Z,78.05
2017-11-10T02:11:53.577Z,77.94
2017-11-10T02:14:28.345Z,77.81
2017-11-10T02:16:59.747Z,77.79
2017-11-10T02:19:31.223Z,77.50
2017-11-10T02:22:06.464Z,77.10
2017-11-10T02:24:39.307Z,77.11
2017-11-10T02:27:11.743Z,76.74
2017-11-10T02:29:43.898Z,76.41
2017-11-10T02:32:22.471Z,76.47
2017-11-10T02:34:57.712Z,76.66
2017-11-10T02:37:30.892Z,76.30
2017-11-10T02:40:06.350Z,76.32
2017-11-10T02:42:40.178Z,76.23
2017-11-10T02:45:13.566Z,76.60
2017-11-10T02:47:46.194Z,77.12
2017-11-10T02:50:22.870Z,77.16
2017-11-10T02:52:54.321Z,77.15
2017-11-10T02:55:26.436Z,76.93
2017-11-10T02:57:58.346Z,77.07
2017-11-10T03:03:26.921Z,77.04
2017-11-10T03:05:59.234Z,77.09
2017-11-10T03:08:32.338Z,77.26
2017-11-10T03:11:06.003Z,77.64
2017-11-10T03:16:43.269Z,77.94
2017-11-10T03:21:57.204Z,78.27
2017-11-10T03:24:29.260Z,78.03
2017-11-10T03:27:02.219Z,77.84
2017-11-10T03:29:34.598Z,77.94
2017-11-10T03:32:07.635Z,77.80
2017-11-10T03:34:40.045Z,77.18
2017-11-10T03:37:12.079Z,77.45
2017-11-10T03:39:44.582Z,77.74
2017-11-10T03:42:16.918Z,77.82
2017-11-10T03:44:49.065Z,77.84
2017-11-10T03:47:21.573Z,77.87
2017-11-10T03:49:54.606Z,78.19
2017-11-10T03:52:26.814Z,78.45
2017-11-10T03:55:00.163Z,78.71
2017-11-10T03:57:32.469Z,78.76
2017-11-10T04:00:06.730Z,78.77
2017-11-10T04:02:39.408Z,78.99
2017-11-10T04:05:11.593Z,79.07
2017-11-10T04:07:43.808Z,78.88
2017-11-10T04:10:17.086Z,78.81
2017-11-10T04:12:49.084Z,78.57
2017-11-10T04:15:21.267Z,78.15
2017-11-10T04:17:53.822Z,77.81
2017-11-10T04:20:27.062Z,77.34
2017-11-10T04:22:59.400Z,77.28
2017-11-10T04:25:31.469Z,77.38
2017-11-10T04:28:05.873Z,77.40
2017-11-10T04:30:38.387Z,77.31
2017-11-10T04:33:10.511Z,77.45
2017-11-10T04:35:42.477Z,77.52
2017-11-10T04:38:14.924Z,77.49
2017-11-10T04:40:47.088Z,77.47
2017-11-10T04:43:19.604Z,77.40
2017-11-10T04:45:51.775Z,77.16
2017-11-10T04:48:23.822Z,76.91
2017-11-10T04:50:56.524Z,76.59
2017-11-10T04:53:28.780Z,76.51
2017-11-10T04:56:01.648Z,76.25
2017-11-10T04:58:35.085Z,76.37
2017-11-10T05:01:08.329Z,76.61
2017-11-10T05:03:40.692Z,76.42
2017-11-10T05:06:14.719Z,76.30
2017-11-10T05:08:47.037Z,76.25
2017-11-10T05:11:19.865Z,76.02
2017-11-10T05:13:51.977Z,75.89
2017-11-10T05:16:24.857Z,75.80
2017-11-10T05:18:58.331Z,75.56
2017-11-10T05:21:30.699Z,75.31
2017-11-10T05:24:03.875Z,75.47
2017-11-10T05:26:36.178Z,75.79
2017-11-10T05:29:08.313Z,75.69
2017-11-10T05:31:40.869Z,75.31
2017-11-10T05:34:16.503Z,75.37
2017-11-10T05:36:48.798Z,75.43
2017-11-10T05:39:22.008Z,74.99
2017-11-10T05:41:55.197Z,74.74
2017-11-10T05:44:27.314Z,75.04
2017-11-10T05:46:59.919Z,75.49
2017-11-10T05:49:32.013Z,75.25
2017-11-10T05:52:07.045Z,75.13
2017-11-10T05:54:39.296Z,74.93
2017-11-10T05:57:11.423Z,75.09
2017-11-10T05:59:43.955Z,75.40
2017-11-10T06:02:17.174Z,75.56
2017-11-10T06:04:49.789Z,75.29
2017-11-10T06:07:21.906Z,75.02
2017-11-10T06:09:54.084Z,74.91
2017-11-10T06:12:26.452Z,74.94
2017-11-10T06:14:58.571Z,74.81
2017-11-10T06:17:30.738Z,74.85
2017-11-10T06:20:07.147Z,75.04
2017-11-10T06:22:39.223Z,74.89
2017-11-10T06:25:11.262Z,74.87
2017-11-10T06:27:43.618Z,74.91
2017-11-10T06:30:17.572Z,74.86
2017-11-10T06:32:49.992Z,74.97
2017-11-10T06:35:22.439Z,74.85
2017-11-10T06:37:54.746Z,74.80
2017-11-10T06:40:27.027Z,74.95
2017-11-10T06:42:59.395Z,75.33
2017-11-10T06:45:31.467Z,75.21
2017-11-10T06:48:06.183Z,75.10
2017-11-10T06:50:45.867Z,75.18
2017-11-10T06:53:17.830Z,75.23
2017-11-10T06:55:50.378Z,75.24
2017-11-10T06:58:22.588Z,75.10
2017-11-10T07:00:54.953Z,74.99
2017-11-10T07:03:26.961Z,74.81
2017-11-10T07:05:59.468Z,74.82
2017-11-10T07:08:31.913Z,74.52
2017-11-10T07:11:05.040Z,74.37
2017-11-10T07:13:37.107Z,74.18
2017-11-10T07:16:11.233Z,74.10
2017-11-10T07:18:43.170Z,74.31
2017-11-10T07:21:15.311Z,74.21
2017-11-10T07:23:47.316Z,74.21
2017-11-10T07:26:21.757Z,73.78
2017-11-10T07:28:54.674Z,73.59
2017-11-10T07:31:26.679Z,73.46
2017-11-10T07:34:06.535Z,73.21
2017-11-10T07:36:38.532Z,73.17
2017-11-10T07:39:11.404Z,73.17
2017-11-10T07:41:43.460Z,73.32
2017-11-10T07:44:15.857Z,73.38
2017-11-10T07:46:47.877Z,73.44
2017-11-10T07:49:20.841Z,73.04
2017-11-10T07:51:53.078Z,73.22
2017-11-10T07:54:24.903Z,72.97
2017-11-10T07:56:57.229Z,72.79
2017-11-10T07:59:29.346Z,72.54
2017-11-10T08:02:02.977Z,72.75
2017-11-10T08:04:41.180Z,72.83
2017-11-10T08:07:14.368Z,72.37
2017-11-10T08:09:46.649Z,72.25
2017-11-10T08:12:21.500Z,72.04
2017-11-10T08:14:54.298Z,71.88
2017-11-10T08:17:26.330Z,71.84
2017-11-10T08:20:00.276Z,72.05
2017-11-10T08:22:32.513Z,72.03
2017-11-10T08:25:08.132Z,72.17
2017-11-10T08:27:40.573Z,72.40
2017-11-10T08:30:18.505Z,72.48
2017-11-10T08:32:50.888Z,72.70
2017-11-10T08:35:22.886Z,72.94
2017-11-10T08:37:55.431Z,72.97
2017-11-10T08:40:27.888Z,72.88
2017-11-10T08:43:01.748Z,72.86
2017-11-10T08:45:34.156Z,73.34
2017-11-10T08:48:12.777Z,73.56
2017-11-10T08:50:45.063Z,73.86
2017-11-10T08:53:17.141Z,74.34
2017-11-10T08:55:49.227Z,74.46
2017-11-10T08:58:22.632Z,74.61
2017-11-10T09:00:55.149Z,74.33
2017-11-10T09:03:27.384Z,74.49
2017-11-10T09:05:59.501Z,74.63
2017-11-10T09:08:31.587Z,74.70
2017-11-10T09:11:04.993Z,74.53
2017-11-10T09:13:40.055Z,75.06
2017-11-10T09:16:15.417Z,75.35
2017-11-10T09:18:47.890Z,75.16
2017-11-10T09:21:20.037Z,75.41
2017-11-10T09:23:52.373Z,74.59
2017-11-10T09:26:26.183Z,75.01
2017-11-10T09:28:58.815Z,74.86
2017-11-10T09:31:31.264Z,74.73
2017-11-10T09:34:04.716Z,74.71
2017-11-10T09:36:37.291Z,73.90
2017-11-10T09:39:10.172Z,73.39
2017-11-10T09:41:43.458Z,73.44
2017-11-10T09:44:19.452Z,73.96
2017-11-10T09:46:52.658Z,73.12
2017-11-10T09:49:29.018Z,73.52
2017-11-10T09:52:04.795Z,73.33
2017-11-10T09:54:37.906Z,73.16
2017-11-10T09:57:12.708Z,73.83
2017-11-10T09:59:45.048Z,73.85
2017-11-10T10:02:18.712Z,74.67
2017-11-10T10:04:58.719Z,74.47
2017-11-10T10:07:32.063Z,74.66
2017-11-10T10:10:08.994Z,74.47
2017-11-10T10:12:41.532Z,74.63
2017-11-10T10:15:14.248Z,75.00
2017-11-10T10:17:46.514Z,75.09
2017-11-10T10:20:22.644Z,75.92
2017-11-10T10:22:55.428Z,76.73
2017-11-10T10:25:27.748Z,77.01
2017-11-10T10:27:59.950Z,77.04
2017-11-10T10:30:32.586Z,76.86
2017-11-10T10:33:06.493Z,76.90
2017-11-10T10:35:38.642Z,76.41
2017-11-10T10:38:15.112Z,76.74
2017-11-10T10:40:47.312Z,77.05
2017-11-10T10:43:19.722Z,76.53
2017-11-10T10:45:52.172Z,75.96
2017-11-10T10:48:27.513Z,75.50
2017-11-10T10:51:00.349Z,75.89
2017-11-10T10:53:33.273Z,76.36
2017-11-10T10:56:11.018Z,76.59
2017-11-10T11:01:39.085Z,77.15
2017-11-10T11:04:11.476Z,76.55
2017-11-10T11:06:43.882Z,76.57
2017-11-10T11:09:42.812Z,77.42
2017-11-10T11:12:15.842Z,77.62
2017-11-10T11:17:55.283Z,78.13
2017-11-10T11:20:27.462Z,78.90
2017-11-10T11:23:00.112Z,78.48
2017-11-10T11:25:35.676Z,79.05
2017-11-10T11:28:09.724Z,79.79
2017-11-10T11:30:41.667Z,80.20
2017-11-10T11:33:28.894Z,79.94
2017-11-10T11:36:02.827Z,79.71
2017-11-10T11:38:34.565Z,80.02
2017-11-10T11:41:12.302Z,80.07
2017-11-10T11:43:45.805Z,79.95
2017-11-10T11:46:21.886Z,80.05
2017-11-10T11:48:53.633Z,79.77
2017-11-10T11:51:26.274Z,79.87
2017-11-10T11:53:58.598Z,80.07
2017-11-10T11:59:24.841Z,79.94
2017-11-10T12:01:56.436Z,79.62
2017-11-10T12:04:28.693Z,79.78
2017-11-10T12:07:00.529Z,79.94
2017-11-10T12:09:34.414Z,79.95
2017-11-10T12:12:09.255Z,80.20
2017-11-10T12:14:42.400Z,79.48
2017-11-10T12:17:14.749Z,79.47
2017-11-10T12:19:47.525Z,79.25
2017-11-10T12:22:23.190Z,78.96
2017-11-10T12:24:55.763Z,78.96
2017-11-10T12:27:39.873Z,78.82
2017-11-10T12:33:27.287Z,78.73
2017-11-10T12:36:02.325Z,78.55
2017-11-10T12:38:41.136Z,78.53
2017-11-10T12:41:15.581Z,78.92
2017-11-10T12:43:48.641Z,78.82
2017-11-10T12:46:25.254Z,78.29
2017-11-10T12:49:03.040Z,78.47
2017-11-10T12:51:43.468Z,78.34
2017-11-10T12:54:22.817Z,78.63
2017-11-10T12:56:56.589Z,78.60
2017-11-10T12:59:30.272Z,78.90
2017-11-10T13:05:13.651Z,78.79
2017-11-10T13:07:54.954Z,78.83
2017-11-10T13:10:31.076Z,79.19
2017-11-10T13:13:08.365Z,79.25
2017-11-10T13:16:45.827Z,79.59
2017-11-10T13:19:21.267Z,80.29
2017-11-10T13:21:54.011Z,80.08
2017-11-10T13:24:27.875Z,80.21
2017-11-10T13:27:04.556Z,80.30
2017-11-10T13:29:41.512Z,80.03
2017-11-10T13:32:23.474Z,79.67
2017-11-10T13:35:18.642Z,79.80
2017-11-10T13:37:54.043Z,80.06
2017-11-10T13:40:45.646Z,80.06
2017-11-10T13:43:34.077Z,80.06
2017-11-10T13:46:15.256Z,80.41
2017-11-10T13:48:57.049Z,80.34
2017-11-10T13:54:56.757Z,80.17
2017-11-10T13:57:30.594Z,80.20
2017-11-10T14:00:11.360Z,79.89
2017-11-10T14:02:44.039Z,79.62
2017-11-10T14:05:19.490Z,79.70
2017-11-10T14:08:00.743Z,79.76
2017-11-10T14:13:49.038Z,79.63
2017-11-10T14:16:26.509Z,79.65
2017-11-10T14:19:02.942Z,79.71
2017-11-10T14:21:35.662Z,79.97
2017-11-10T14:27:22.116Z,80.66
2017-11-10T14:32:59.027Z,80.55
2017-11-10T14:35:31.447Z,80.42
2017-11-10T14:38:06.998Z,79.92
2017-11-10T14:40:41.544Z,79.56
2017-11-10T14:43:14.154Z,79.53
2017-11-10T14:45:48.808Z,79.64
2017-11-10T14:51:29.046Z,80.01
2017-11-10T14:54:02.784Z,80.28
2017-11-10T14:56:37.019Z,80.11
2017-11-10T15:02:09.254Z,79.64
2017-11-10T15:04:41.013Z,80.07
2017-11-10T15:07:19.098Z,79.98
2017-11-10T15:09:50.900Z,80.05
2017-11-10T15:12:26.616Z,79.95
2017-11-10T15:15:02.452Z,80.19
2017-11-10T15:17:51.431Z,80.47
2017-11-10T15:20:26.403Z,80.40
2017-11-10T15:22:58.915Z,80.37
2017-11-10T15:25:33.403Z,80.27
2017-11-10T15:34:12.016Z,80.24
2017-11-10T15:39:48.877Z,80.45
2017-11-10T15:42:25.783Z,80.58
2017-11-10T15:45:00.810Z,80.95
2017-11-10T15:47:32.895Z,81.02
2017-11-10T15:50:06.903Z,81.19
2017-11-10T15:52:38.857Z,81.24
2017-11-10T15:55:10.543Z,81.27
2017-11-10T15:57:42.340Z,81.50
2017-11-10T16:00:15.807Z,81.52
2017-11-10T16:02:47.614Z,81.34
2017-11-10T16:08:24.632Z,81.49
2017-11-10T16:10:59.334Z,81.37
2017-11-10T16:13:34.455Z,80.93
2017-11-10T16:16:24.116Z,80.90
2017-11-10T16:18:56.524Z,80.61
2017-11-10T16:21:29.600Z,80.84
2017-11-10T16:24:08.558Z,80.55
2017-11-10T16:26:44.484Z,80.65
2017-11-10T16:29:18.380Z,80.79
2017-11-10T16:34:46.167Z,80.17
2017-11-10T16:37:19.547Z,80.42
2017-11-10T16:39:53.369Z,80.68
2017-11-10T16:42:26.524Z,80.82
2017-11-10T16:44:59.067Z,80.83
2017-11-10T16:47:39.913Z,80.95
2017-11-10T16:56:18.718Z,80.61
2017-11-10T16:58:51.506Z,80.55
2017-11-10T17:04:35.304Z,80.36
2017-11-10T17:07:09.178Z,80.27
2017-11-10T17:09:42.382Z,80.24
2017-11-10T17:12:19.364Z,80.32
2017-11-10T17:14:52.627Z,79.82
2017-11-10T17:20:33.238Z,79.70
2017-11-10T17:29:17.900Z,80.06
2017-11-10T17:34:51.539Z,80.01
2017-11-10T17:37:23.485Z,80.32
2017-11-10T17:39:58.004Z,80.48
2017-11-10T17:42:37.122Z,80.44
2017-11-10T17:45:13.069Z,80.53
2017-11-10T17:47:48.818Z,80.68
2017-11-10T17:50:24.102Z,80.98
2017-11-10T17:52:57.731Z,81.15
2017-11-10T17:55:29.954Z,81.49
2017-11-10T17:58:12.854Z,81.72
2017-11-10T18:00:47.859Z,82.00
2017-11-10T18:03:19.955Z,82.11
2017-11-10T18:05:54.108Z,82.37
2017-11-10T18:08:28.761Z,82.50
2017-11-10T18:11:00.996Z,82.45
2017-11-10T18:13:33.984Z,82.79
2017-11-10T18:16:10.380Z,82.92
2017-11-10T18:18:44.016Z,83.16
2017-11-10T18:21:16.947Z,83.24
2017-11-10T18:32:50.552Z,83.96
2017-11-10T18:35:34.767Z,83.84
2017-11-10T18:38:22.789Z,83.73
2017-11-10T18:40:58.314Z,83.71
2017-11-10T18:43:59.901Z,83.85
2017-11-10T18:46:40.233Z,83.90
2017-11-10T18:49:23.710Z,83.99
2017-11-10T18:52:00.113Z,83.99
2017-11-10T18:54:35.772Z,84.03
2017-11-10T18:57:19.255Z,84.43
2017-11-10T18:59:54.335Z,84.65
2017-11-10T19:02:27.985Z,84.74
2017-11-10T19:05:00.758Z,84.74
2017-11-10T19:07:37.957Z,84.76
2017-11-10T19:10:20.509Z,84.78
2017-11-10T19:12:55.883Z,84.92
2017-11-10T19:15:36.554Z,85.02
2017-11-10T19:18:30.101Z,85.25
2017-11-10T19:21:10.496Z,85.75
2017-11-10T19:23:44.229Z,85.87
2017-11-10T19:26:30.407Z,85.85
2017-11-10T19:29:12.624Z,85.92
2017-11-10T19:31:45.182Z,85.83
2017-11-10T19:34:17.647Z,85.51
2017-11-10T19:36:52.721Z,85.07
2017-11-10T19:39:32.396Z,85.12
2017-11-10T19:42:15.335Z,84.92
2017-11-10T19:44:49.447Z,85.12
2017-11-10T19:47:23.725Z,85.36
2017-11-10T19:49:59.807Z,85.50
2017-11-10T19:52:32.098Z,85.39
2017-11-10T19:55:06.954Z,85.18
2017-11-10T19:57:41.254Z,85.20
2017-11-10T20:00:30.645Z,85.25
2017-11-10T20:03:24.928Z,85.29
2017-11-10T20:05:59.731Z,85.34
2017-11-10T20:11:33.572Z,85.54
2017-11-10T20:14:07.773Z,85.63
2017-11-10T20:16:51.435Z,85.77
2017-11-10T20:19:24.033Z,86.01
2017-11-10T20:21:57.178Z,86.02
2017-11-10T20:24:30.653Z,86.05
2017-11-10T20:27:05.718Z,86.03
2017-11-10T20:29:37.255Z,86.29
2017-11-10T20:32:16.132Z,86.30
2017-11-10T20:34:48.702Z,86.12
2017-11-10T20:37:20.311Z,85.85
2017-11-10T20:39:54.023Z,85.75
2017-11-10T20:42:26.346Z,85.59
2017-11-10T20:44:58.101Z,85.35
2017-11-10T20:47:32.147Z,85.07
2017-11-10T20:50:08.598Z,84.88
2017-11-10T20:52:40.959Z,81.72
2017-11-10T20:55:13.146Z,78.20
2017-11-10T20:57:44.751Z,75.54
2017-11-10T21:00:19.070Z,69.74
2017-11-10T21:02:54.612Z,66.81
2017-11-10T21:05:26.181Z,66.61
2017-11-10T21:07:57.899Z,66.63
2017-11-10T21:10:31.165Z,66.19
2017-11-10T21:13:07.231Z,65.45
2017-11-10T21:15:41.628Z,64.41
2017-11-10T21:18:13.162Z,63.77
2017-11-10T21:20:48.087Z,64.37
2017-11-10T21:26:25.777Z,63.63
2017-11-10T21:28:57.322Z,63.40
2017-11-10T21:31:32.959Z,63.92
2017-11-10T21:34:06.294Z,64.10
2017-11-10T21:39:34.127Z,64.22
2017-11-10T21:42:21.338Z,64.75
2017-11-10T21:45:04.750Z,64.03
2017-11-10T21:51:10.220Z,64.77
2017-11-10T21:53:46.248Z,64.03
2017-11-10T21:56:28.780Z,64.12
2017-11-10T21:59:02.405Z,64.67
2017-11-10T22:01:35.548Z,64.98
2017-11-10T22:04:10.518Z,64.87
2017-11-10T22:06:43.004Z,64.88
2017-11-10T22:09:16.686Z,65.73
2017-11-10T22:11:51.041Z,65.97
2017-11-10T22:14:22.861Z,66.37
2017-11-10T22:16:54.970Z,67.62
2017-11-10T22:19:29.370Z,69.05
2017-11-10T22:22:03.508Z,69.59
2017-11-10T22:24:39.406Z,70.15
2017-11-10T22:27:11.817Z,70.67
2017-11-10T22:29:44.639Z,70.94
2017-11-10T22:32:17.251Z,70.72
2017-11-10T22:34:49.283Z,70.62
2017-11-10T22:37:22.607Z,70.78
2017-11-10T22:39:55.234Z,70.15
2017-11-10T22:42:29.250Z,69.49
2017-11-10T22:45:04.227Z,70.45
2017-11-10T22:47:36.864Z,70.35
2017-11-10T22:50:18.320Z,70.77
2017-11-10T22:52:52.176Z,71.05
2017-11-10T22:55:31.083Z,71.03
2017-11-10T22:58:04.645Z,70.78
2017-11-10T23:00:37.477Z,70.97
2017-11-10T23:03:10.042Z,71.18
2017-11-10T23:05:44.110Z,71.56
2017-11-10T23:08:16.428Z,72.04
2017-11-10T23:10:51.364Z,72.53
2017-11-10T23:13:23.528Z,73.01
2017-11-10T23:15:55.869Z,73.53
2017-11-10T23:18:28.334Z,74.05
2017-11-10T23:21:04.883Z,74.22
2017-11-10T23:23:43.229Z,74.03
2017-11-10T23:29:22.352Z,73.95
2017-11-10T23:31:58.912Z,73.51
2017-11-10T23:34:31.438Z,73.20
2017-11-10T23:37:04.686Z,73.23
2017-11-10T23:39:36.488Z,72.99
2017-11-10T23:42:18.842Z,73.22
2017-11-10T23:44:52.240Z,73.06
2017-11-10T23:47:25.523Z,73.29
2017-11-10T23:50:00.814Z,73.56
2017-11-10T23:52:33.273Z,73.09
2017-11-10T23:55:06.326Z,73.00
2017-11-10T23:57:42.433Z,72.87
